sensor_id;sensor_type;location;lat;lon;timestamp;temperature;humidity
13458;DHT22;6801;53.018;11.560;2023-04-01T00:00:34;10.80;82.70
13458;DHT22;6801;53.018;11.560;2023-04-01T00:03:01;10.80;82.70
13458;DHT22;6801;53.018;11.560;2023-04-01T00:05:30;10.70;82.70
13458;DHT22;6801;53.018;11.560;2023-04-01T00:07:57;10.80;82.70
13458;DHT22;6801;53.018;11.560;2023-04-01T00:10:23;10.70;82.80
13458;DHT22;6801;53.018;11.560;2023-04-01T00:12:50;10.70;82.80
13458;DHT22;6801;53.018;11.560;2023-04-01T00:15:17;10.70;82.80
13458;DHT22;6801;53.018;11.560;2023-04-01T00:17:44;10.70;82.80
13458;DHT22;6801;53.018;11.560;2023-04-01T00:20:12;10.70;82.90
13458;DHT22;6801;53.018;11.560;2023-04-01T00:22:41;10.70;82.90
13458;DHT22;6801;53.018;11.560;2023-04-01T00:25:09;10.70;82.80
13458;DHT22;6801;53.018;11.560;2023-04-01T00:27:36;10.70;82.80
13458;DHT22;6801;53.018;11.560;2023-04-01T00:30:03;10.70;82.80
13458;DHT22;6801;53.018;11.560;2023-04-01T00:32:31;10.70;82.80
13458;DHT22;6801;53.018;11.560;2023-04-01T00:34:58;10.70;82.80
13458;DHT22;6801;53.018;11.560;2023-04-01T00:37:26;10.60;82.80
13458;DHT22;6801;53.018;11.560;2023-04-01T00:39:55;10.60;82.80
13458;DHT22;6801;53.018;11.560;2023-04-01T00:42:23;10.60;82.80
13458;DHT22;6801;53.018;11.560;2023-04-01T00:44:53;10.60;82.80
13458;DHT22;6801;53.018;11.560;2023-04-01T00:47:20;10.60;82.80
13458;DHT22;6801;53.018;11.560;2023-04-01T00:49:51;10.60;82.80
13458;DHT22;6801;53.018;11.560;2023-04-01T00:52:22;10.60;82.80
13458;DHT22;6801;53.018;11.560;2023-04-01T00:54:53;10.50;82.80
13458;DHT22;6801;53.018;11.560;2023-04-01T00:57:27;10.60;82.80
13458;DHT22;6801;53.018;11.560;2023-04-01T00:59:55;10.50;82.80
13458;DHT22;6801;53.018;11.560;2023-04-01T01:02:23;10.50;82.80
13458;DHT22;6801;53.018;11.560;2023-04-01T01:04:50;10.50;82.80
13458;DHT22;6801;53.018;11.560;2023-04-01T01:07:24;10.50;82.90
13458;DHT22;6801;53.018;11.560;2023-04-01T01:10:02;10.50;82.90
13458;DHT22;6801;53.018;11.560;2023-04-01T01:12:35;10.50;82.80
13458;DHT22;6801;53.018;11.560;2023-04-01T01:15:11;10.50;82.80
13458;DHT22;6801;53.018;11.560;2023-04-01T01:17:48;10.50;82.80
13458;DHT22;6801;53.018;11.560;2023-04-01T01:26:42;10.50;82.70
13458;DHT22;6801;53.018;11.560;2023-04-01T01:32:30;10.40;82.60
13458;DHT22;6801;53.018;11.560;2023-04-01T01:35:12;10.40;82.60
13458;DHT22;6801;53.018;11.560;2023-04-01T01:37:43;10.40;82.60
13458;DHT22;6801;53.018;11.560;2023-04-01T01:40:12;10.40;82.60
13458;DHT22;6801;53.018;11.560;2023-04-01T01:42:43;10.40;82.70
13458;DHT22;6801;53.018;11.560;2023-04-01T01:45:11;10.40;82.70
13458;DHT22;6801;53.018;11.560;2023-04-01T01:47:40;10.40;82.70
13458;DHT22;6801;53.018;11.560;2023-04-01T01:50:10;10.40;82.60
13458;DHT22;6801;53.018;11.560;2023-04-01T01:52:38;10.40;82.60
13458;DHT22;6801;53.018;11.560;2023-04-01T01:55:27;10.30;82.70
13458;DHT22;6801;53.018;11.560;2023-04-01T01:57:58;10.40;82.70
13458;DHT22;6801;53.018;11.560;2023-04-01T02:00:26;10.30;82.70
13458;DHT22;6801;53.018;11.560;2023-04-01T02:02:55;10.30;82.70
13458;DHT22;6801;53.018;11.560;2023-04-01T02:05:26;10.30;82.50
13458;DHT22;6801;53.018;11.560;2023-04-01T02:08:05;10.30;82.60
13458;DHT22;6801;53.018;11.560;2023-04-01T02:10:37;10.30;82.60
13458;DHT22;6801;53.018;11.560;2023-04-01T02:13:12;10.30;82.60
13458;DHT22;6801;53.018;11.560;2023-04-01T02:15:45;10.30;82.60
13458;DHT22;6801;53.018;11.560;2023-04-01T02:18:14;10.30;82.60
13458;DHT22;6801;53.018;11.560;2023-04-01T02:20:44;10.30;82.60
13458;DHT22;6801;53.018;11.560;2023-04-01T02:23:12;10.30;82.70
13458;DHT22;6801;53.018;11.560;2023-04-01T02:25:41;10.30;82.60
13458;DHT22;6801;53.018;11.560;2023-04-01T02:28:10;10.30;82.70
13458;DHT22;6801;53.018;11.560;2023-04-01T02:30:40;10.30;82.80
13458;DHT22;6801;53.018;11.560;2023-04-01T02:33:08;10.30;82.80
13458;DHT22;6801;53.018;11.560;2023-04-01T02:35:36;10.30;82.80
13458;DHT22;6801;53.018;11.560;2023-04-01T02:38:05;10.30;82.90
13458;DHT22;6801;53.018;11.560;2023-04-01T02:40:45;10.30;82.90
13458;DHT22;6801;53.018;11.560;2023-04-01T02:43:13;10.30;82.90
13458;DHT22;6801;53.018;11.560;2023-04-01T02:45:42;10.30;82.90
13458;DHT22;6801;53.018;11.560;2023-04-01T02:48:09;10.30;82.90
13458;DHT22;6801;53.018;11.560;2023-04-01T02:50:36;10.30;82.90
13458;DHT22;6801;53.018;11.560;2023-04-01T02:53:04;10.30;83.00
13458;DHT22;6801;53.018;11.560;2023-04-01T02:55:31;10.30;83.00
13458;DHT22;6801;53.018;11.560;2023-04-01T02:57:58;10.30;83.00
13458;DHT22;6801;53.018;11.560;2023-04-01T03:00:26;10.20;83.00
13458;DHT22;6801;53.018;11.560;2023-04-01T03:02:53;10.30;83.10
13458;DHT22;6801;53.018;11.560;2023-04-01T03:05:21;10.30;83.20
13458;DHT22;6801;53.018;11.560;2023-04-01T03:07:48;10.30;83.20
13458;DHT22;6801;53.018;11.560;2023-04-01T03:10:17;10.30;83.20
13458;DHT22;6801;53.018;11.560;2023-04-01T03:12:44;10.30;83.20
13458;DHT22;6801;53.018;11.560;2023-04-01T03:15:12;10.30;83.20
13458;DHT22;6801;53.018;11.560;2023-04-01T03:17:40;10.30;83.30
13458;DHT22;6801;53.018;11.560;2023-04-01T03:20:10;10.30;83.40
13458;DHT22;6801;53.018;11.560;2023-04-01T03:22:37;10.30;83.50
13458;DHT22;6801;53.018;11.560;2023-04-01T03:25:06;10.30;83.50
13458;DHT22;6801;53.018;11.560;2023-04-01T03:27:34;10.20;83.50
13458;DHT22;6801;53.018;11.560;2023-04-01T03:30:02;10.30;83.60
13458;DHT22;6801;53.018;11.560;2023-04-01T03:32:32;10.30;83.60
13458;DHT22;6801;53.018;11.560;2023-04-01T03:34:59;10.30;83.60
13458;DHT22;6801;53.018;11.560;2023-04-01T03:37:26;10.30;83.70
13458;DHT22;6801;53.018;11.560;2023-04-01T03:39:53;10.30;83.70
13458;DHT22;6801;53.018;11.560;2023-04-01T03:42:20;10.30;83.70
13458;DHT22;6801;53.018;11.560;2023-04-01T03:44:49;10.30;83.70
13458;DHT22;6801;53.018;11.560;2023-04-01T03:47:16;10.30;83.70
13458;DHT22;6801;53.018;11.560;2023-04-01T03:49:43;10.20;83.70
13458;DHT22;6801;53.018;11.560;2023-04-01T03:52:11;10.20;83.80
13458;DHT22;6801;53.018;11.560;2023-04-01T03:54:38;10.20;83.80
13458;DHT22;6801;53.018;11.560;2023-04-01T03:57:05;10.20;83.80
13458;DHT22;6801;53.018;11.560;2023-04-01T03:59:33;10.20;83.80
13458;DHT22;6801;53.018;11.560;2023-04-01T04:02:02;10.30;83.80
13458;DHT22;6801;53.018;11.560;2023-04-01T04:04:30;10.30;83.90
13458;DHT22;6801;53.018;11.560;2023-04-01T04:06:58;10.20;83.80
13458;DHT22;6801;53.018;11.560;2023-04-01T04:09:26;10.20;83.90
13458;DHT22;6801;53.018;11.560;2023-04-01T04:11:53;10.30;83.90
13458;DHT22;6801;53.018;11.560;2023-04-01T04:14:20;10.20;84.00
13458;DHT22;6801;53.018;11.560;2023-04-01T04:16:48;10.20;84.00
13458;DHT22;6801;53.018;11.560;2023-04-01T04:19:16;10.20;84.00
13458;DHT22;6801;53.018;11.560;2023-04-01T04:21:44;10.20;84.10
13458;DHT22;6801;53.018;11.560;2023-04-01T04:24:11;10.20;84.10
13458;DHT22;6801;53.018;11.560;2023-04-01T04:27:00;10.20;84.10
13458;DHT22;6801;53.018;11.560;2023-04-01T04:29:28;10.20;84.10
13458;DHT22;6801;53.018;11.560;2023-04-01T04:31:54;10.20;84.10
13458;DHT22;6801;53.018;11.560;2023-04-01T04:34:23;10.30;84.10
13458;DHT22;6801;53.018;11.560;2023-04-01T04:36:50;10.30;84.10
13458;DHT22;6801;53.018;11.560;2023-04-01T04:39:18;10.30;84.10
13458;DHT22;6801;53.018;11.560;2023-04-01T04:41:45;10.20;84.10
13458;DHT22;6801;53.018;11.560;2023-04-01T04:44:12;10.20;84.20
13458;DHT22;6801;53.018;11.560;2023-04-01T04:46:40;10.30;84.20
13458;DHT22;6801;53.018;11.560;2023-04-01T04:49:13;10.30;84.20
13458;DHT22;6801;53.018;11.560;2023-04-01T04:51:42;10.20;84.20
13458;DHT22;6801;53.018;11.560;2023-04-01T04:54:10;10.20;84.30
13458;DHT22;6801;53.018;11.560;2023-04-01T04:56:50;10.20;84.30
13458;DHT22;6801;53.018;11.560;2023-04-01T04:59:17;10.20;84.30
13458;DHT22;6801;53.018;11.560;2023-04-01T05:01:55;10.20;84.30
13458;DHT22;6801;53.018;11.560;2023-04-01T05:04:22;10.20;84.30
13458;DHT22;6801;53.018;11.560;2023-04-01T05:06:50;10.20;84.30
13458;DHT22;6801;53.018;11.560;2023-04-01T05:09:17;10.20;84.30
13458;DHT22;6801;53.018;11.560;2023-04-01T05:11:44;10.20;84.20
13458;DHT22;6801;53.018;11.560;2023-04-01T05:14:13;10.20;84.30
13458;DHT22;6801;53.018;11.560;2023-04-01T05:16:41;10.20;84.30
13458;DHT22;6801;53.018;11.560;2023-04-01T05:19:08;10.20;84.30
13458;DHT22;6801;53.018;11.560;2023-04-01T05:21:35;10.20;84.30
13458;DHT22;6801;53.018;11.560;2023-04-01T05:24:07;10.20;84.30
13458;DHT22;6801;53.018;11.560;2023-04-01T05:26:34;10.20;84.30
13458;DHT22;6801;53.018;11.560;2023-04-01T05:29:02;10.20;84.30
13458;DHT22;6801;53.018;11.560;2023-04-01T05:31:29;10.20;84.40
13458;DHT22;6801;53.018;11.560;2023-04-01T05:33:57;10.20;84.40
13458;DHT22;6801;53.018;11.560;2023-04-01T05:36:24;10.20;84.40
13458;DHT22;6801;53.018;11.560;2023-04-01T05:38:54;10.20;84.40
13458;DHT22;6801;53.018;11.560;2023-04-01T05:41:23;10.10;84.40
13458;DHT22;6801;53.018;11.560;2023-04-01T05:43:50;10.20;84.40
13458;DHT22;6801;53.018;11.560;2023-04-01T05:46:40;10.20;84.50
13458;DHT22;6801;53.018;11.560;2023-04-01T05:49:17;10.20;84.40
13458;DHT22;6801;53.018;11.560;2023-04-01T05:51:44;10.20;84.50
13458;DHT22;6801;53.018;11.560;2023-04-01T05:54:11;10.20;84.60
13458;DHT22;6801;53.018;11.560;2023-04-01T05:56:40;10.20;84.70
13458;DHT22;6801;53.018;11.560;2023-04-01T05:59:09;10.20;84.70
13458;DHT22;6801;53.018;11.560;2023-04-01T06:01:36;10.20;84.70
13458;DHT22;6801;53.018;11.560;2023-04-01T06:04:03;10.20;84.70
13458;DHT22;6801;53.018;11.560;2023-04-01T06:06:32;10.20;84.70
13458;DHT22;6801;53.018;11.560;2023-04-01T06:09:13;10.30;84.80
13458;DHT22;6801;53.018;11.560;2023-04-01T06:12:02;10.30;84.80
13458;DHT22;6801;53.018;11.560;2023-04-01T06:14:38;10.30;84.60
13458;DHT22;6801;53.018;11.560;2023-04-01T06:17:20;10.30;84.70
13458;DHT22;6801;53.018;11.560;2023-04-01T06:19:55;10.30;84.70
13458;DHT22;6801;53.018;11.560;2023-04-01T06:25:49;10.50;84.60
13458;DHT22;6801;53.018;11.560;2023-04-01T06:28:52;10.60;83.90
13458;DHT22;6801;53.018;11.560;2023-04-01T06:31:36;10.50;84.10
13458;DHT22;6801;53.018;11.560;2023-04-01T06:34:20;10.50;83.80
13458;DHT22;6801;53.018;11.560;2023-04-01T06:37:11;10.50;83.50
13458;DHT22;6801;53.018;11.560;2023-04-01T06:39:59;10.50;83.10
13458;DHT22;6801;53.018;11.560;2023-04-01T06:42:45;10.50;82.80
13458;DHT22;6801;53.018;11.560;2023-04-01T06:45:44;10.40;82.60
13458;DHT22;6801;53.018;11.560;2023-04-01T06:48:40;10.40;82.60
13458;DHT22;6801;53.018;11.560;2023-04-01T06:51:48;10.40;82.40
13458;DHT22;6801;53.018;11.560;2023-04-01T06:54:39;10.40;82.20
13458;DHT22;6801;53.018;11.560;2023-04-01T06:57:31;10.30;82.20
13458;DHT22;6801;53.018;11.560;2023-04-01T07:00:01;10.30;82.50
13458;DHT22;6801;53.018;11.560;2023-04-01T07:02:36;10.30;82.40
13458;DHT22;6801;53.018;11.560;2023-04-01T07:05:05;10.20;82.10
13458;DHT22;6801;53.018;11.560;2023-04-01T07:07:36;10.20;82.40
13458;DHT22;6801;53.018;11.560;2023-04-01T07:10:13;10.20;82.20
13458;DHT22;6801;53.018;11.560;2023-04-01T07:13:05;10.20;82.10
13458;DHT22;6801;53.018;11.560;2023-04-01T07:16:08;10.20;82.10
13458;DHT22;6801;53.018;11.560;2023-04-01T07:18:44;10.10;82.10
13458;DHT22;6801;53.018;11.560;2023-04-01T07:21:23;10.10;82.10
13458;DHT22;6801;53.018;11.560;2023-04-01T07:23:54;10.00;82.40
13458;DHT22;6801;53.018;11.560;2023-04-01T07:26:42;10.10;82.10
13458;DHT22;6801;53.018;11.560;2023-04-01T07:29:14;10.20;81.50
13458;DHT22;6801;53.018;11.560;2023-04-01T07:32:09;10.10;81.20
13458;DHT22;6801;53.018;11.560;2023-04-01T07:34:49;10.00;81.50
13458;DHT22;6801;53.018;11.560;2023-04-01T07:37:22;10.00;81.50
13458;DHT22;6801;53.018;11.560;2023-04-01T07:40:02;9.90;81.90
13458;DHT22;6801;53.018;11.560;2023-04-01T07:42:42;9.90;81.80
13458;DHT22;6801;53.018;11.560;2023-04-01T07:45:17;9.90;81.70
13458;DHT22;6801;53.018;11.560;2023-04-01T07:47:57;9.90;81.60
13458;DHT22;6801;53.018;11.560;2023-04-01T07:50:29;9.90;81.30
13458;DHT22;6801;53.018;11.560;2023-04-01T07:53:05;9.90;81.70
13458;DHT22;6801;53.018;11.560;2023-04-01T07:55:39;9.90;81.70
13458;DHT22;6801;53.018;11.560;2023-04-01T07:58:15;9.80;81.70
13458;DHT22;6801;53.018;11.560;2023-04-01T08:00:51;9.70;82.00
13458;DHT22;6801;53.018;11.560;2023-04-01T08:03:49;9.80;81.70
13458;DHT22;6801;53.018;11.560;2023-04-01T08:06:26;9.80;81.80
13458;DHT22;6801;53.018;11.560;2023-04-01T08:09:01;9.70;81.90
13458;DHT22;6801;53.018;11.560;2023-04-01T08:11:56;9.80;81.80
13458;DHT22;6801;53.018;11.560;2023-04-01T08:14:54;9.70;81.60
13458;DHT22;6801;53.018;11.560;2023-04-01T08:17:59;9.70;81.90
13458;DHT22;6801;53.018;11.560;2023-04-01T08:20:34;9.70;81.90
13458;DHT22;6801;53.018;11.560;2023-04-01T08:23:09;9.70;82.10
13458;DHT22;6801;53.018;11.560;2023-04-01T08:25:42;9.80;81.30
13458;DHT22;6801;53.018;11.560;2023-04-01T08:28:16;9.90;81.10
13458;DHT22;6801;53.018;11.560;2023-04-01T08:30:47;9.80;81.20
13458;DHT22;6801;53.018;11.560;2023-04-01T08:33:21;9.70;81.70
13458;DHT22;6801;53.018;11.560;2023-04-01T08:35:57;9.70;81.70
13458;DHT22;6801;53.018;11.560;2023-04-01T08:38:31;9.70;81.90
13458;DHT22;6801;53.018;11.560;2023-04-01T08:41:01;9.70;81.80
13458;DHT22;6801;53.018;11.560;2023-04-01T08:47:30;9.70;81.80
13458;DHT22;6801;53.018;11.560;2023-04-01T08:50:26;9.60;82.10
13458;DHT22;6801;53.018;11.560;2023-04-01T08:53:23;9.70;82.20
13458;DHT22;6801;53.018;11.560;2023-04-01T08:56:03;9.70;82.10
13458;DHT22;6801;53.018;11.560;2023-04-01T08:58:59;9.70;82.30
13458;DHT22;6801;53.018;11.560;2023-04-01T09:01:58;9.70;82.20
13458;DHT22;6801;53.018;11.560;2023-04-01T09:07:55;9.70;82.20
13458;DHT22;6801;53.018;11.560;2023-04-01T09:10:53;9.80;81.70
13458;DHT22;6801;53.018;11.560;2023-04-01T09:19:59;9.80;82.30
13458;DHT22;6801;53.018;11.560;2023-04-01T09:22:41;9.70;82.30
13458;DHT22;6801;53.018;11.560;2023-04-01T09:25:43;9.70;82.40
13458;DHT22;6801;53.018;11.560;2023-04-01T09:28:18;9.70;82.60
13458;DHT22;6801;53.018;11.560;2023-04-01T09:34:39;9.90;81.60
13458;DHT22;6801;53.018;11.560;2023-04-01T09:37:17;9.90;82.00
13458;DHT22;6801;53.018;11.560;2023-04-01T09:42:43;9.80;81.90
13458;DHT22;6801;53.018;11.560;2023-04-01T09:45:49;9.80;81.90
13458;DHT22;6801;53.018;11.560;2023-04-01T09:48:35;9.80;82.00
13458;DHT22;6801;53.018;11.560;2023-04-01T09:51:17;9.80;82.10
13458;DHT22;6801;53.018;11.560;2023-04-01T09:53:55;9.70;82.40
13458;DHT22;6801;53.018;11.560;2023-04-01T09:57:02;9.80;82.30
13458;DHT22;6801;53.018;11.560;2023-04-01T10:00:15;10.00;82.00
13458;DHT22;6801;53.018;11.560;2023-04-01T10:06:27;10.00;81.70
13458;DHT22;6801;53.018;11.560;2023-04-01T10:18:41;10.00;81.70
13458;DHT22;6801;53.018;11.560;2023-04-01T10:21:48;10.00;81.70
13458;DHT22;6801;53.018;11.560;2023-04-01T10:24:46;9.90;82.00
13458;DHT22;6801;53.018;11.560;2023-04-01T10:28:00;10.00;82.00
13458;DHT22;6801;53.018;11.560;2023-04-01T10:31:23;10.10;81.60
13458;DHT22;6801;53.018;11.560;2023-04-01T10:37:21;10.10;81.40
13458;DHT22;6801;53.018;11.560;2023-04-01T10:40:17;10.10;81.50
13458;DHT22;6801;53.018;11.560;2023-04-01T10:43:52;10.20;81.50
13458;DHT22;6801;53.018;11.560;2023-04-01T10:47:07;10.20;81.30
13458;DHT22;6801;53.018;11.560;2023-04-01T10:49:46;10.20;81.40
13458;DHT22;6801;53.018;11.560;2023-04-01T10:56:33;10.30;80.80
13458;DHT22;6801;53.018;11.560;2023-04-01T10:59:52;10.20;80.60
13458;DHT22;6801;53.018;11.560;2023-04-01T11:03:10;10.10;81.00
13458;DHT22;6801;53.018;11.560;2023-04-01T11:06:21;10.10;81.20
13458;DHT22;6801;53.018;11.560;2023-04-01T11:09:14;10.10;81.40
13458;DHT22;6801;53.018;11.560;2023-04-01T11:15:08;10.10;81.10
13458;DHT22;6801;53.018;11.560;2023-04-01T11:20:51;10.10;80.90
13458;DHT22;6801;53.018;11.560;2023-04-01T11:26:33;10.10;80.80
13458;DHT22;6801;53.018;11.560;2023-04-01T11:29:36;10.20;80.30
13458;DHT22;6801;53.018;11.560;2023-04-01T11:32:27;10.20;80.30
13458;DHT22;6801;53.018;11.560;2023-04-01T11:35:01;10.20;79.90
13458;DHT22;6801;53.018;11.560;2023-04-01T11:37:40;10.10;80.20
13458;DHT22;6801;53.018;11.560;2023-04-01T11:40:37;10.20;80.20
13458;DHT22;6801;53.018;11.560;2023-04-01T11:43:37;10.10;80.50
13458;DHT22;6801;53.018;11.560;2023-04-01T11:46:33;10.00;80.80
13458;DHT22;6801;53.018;11.560;2023-04-01T11:49:12;10.10;80.50
13458;DHT22;6801;53.018;11.560;2023-04-01T11:52:22;10.10;80.30
13458;DHT22;6801;53.018;11.560;2023-04-01T11:55:11;10.20;80.00
13458;DHT22;6801;53.018;11.560;2023-04-01T11:57:54;10.20;79.90
13458;DHT22;6801;53.018;11.560;2023-04-01T12:00:45;10.20;79.60
13458;DHT22;6801;53.018;11.560;2023-04-01T12:03:43;10.20;79.20
13458;DHT22;6801;53.018;11.560;2023-04-01T12:06:18;10.10;79.20
13458;DHT22;6801;53.018;11.560;2023-04-01T12:08:53;10.10;79.40
13458;DHT22;6801;53.018;11.560;2023-04-01T12:11:30;10.00;79.50
13458;DHT22;6801;53.018;11.560;2023-04-01T12:14:03;10.00;79.60
13458;DHT22;6801;53.018;11.560;2023-04-01T12:16:43;10.00;79.70
13458;DHT22;6801;53.018;11.560;2023-04-01T12:19:21;10.00;79.90
13458;DHT22;6801;53.018;11.560;2023-04-01T12:21:58;10.00;79.70
13458;DHT22;6801;53.018;11.560;2023-04-01T12:24:47;10.00;79.60
13458;DHT22;6801;53.018;11.560;2023-04-01T12:27:27;10.00;79.70
13458;DHT22;6801;53.018;11.560;2023-04-01T12:30:37;10.00;79.40
13458;DHT22;6801;53.018;11.560;2023-04-01T12:33:25;10.10;78.90
13458;DHT22;6801;53.018;11.560;2023-04-01T12:36:09;10.10;79.20
13458;DHT22;6801;53.018;11.560;2023-04-01T12:38:48;10.00;79.00
13458;DHT22;6801;53.018;11.560;2023-04-01T12:41:24;10.00;79.10
13458;DHT22;6801;53.018;11.560;2023-04-01T12:44:23;10.00;79.00
13458;DHT22;6801;53.018;11.560;2023-04-01T12:47:19;9.90;79.60
13458;DHT22;6801;53.018;11.560;2023-04-01T12:50:13;10.00;79.20
13458;DHT22;6801;53.018;11.560;2023-04-01T12:52:55;10.00;78.90
13458;DHT22;6801;53.018;11.560;2023-04-01T12:55:43;10.00;79.10
13458;DHT22;6801;53.018;11.560;2023-04-01T12:58:35;10.00;79.10
13458;DHT22;6801;53.018;11.560;2023-04-01T13:01:19;10.00;78.50
13458;DHT22;6801;53.018;11.560;2023-04-01T13:04:15;10.00;78.50
13458;DHT22;6801;53.018;11.560;2023-04-01T13:06:57;9.90;78.80
13458;DHT22;6801;53.018;11.560;2023-04-01T13:09:40;9.90;79.00
13458;DHT22;6801;53.018;11.560;2023-04-01T13:12:27;9.90;78.50
13458;DHT22;6801;53.018;11.560;2023-04-01T13:15:22;9.80;78.50
13458;DHT22;6801;53.018;11.560;2023-04-01T13:17:54;9.80;78.70
13458;DHT22;6801;53.018;11.560;2023-04-01T13:20:41;9.80;78.70
13458;DHT22;6801;53.018;11.560;2023-04-01T13:23:19;9.70;78.80
13458;DHT22;6801;53.018;11.560;2023-04-01T13:25:53;9.80;78.70
13458;DHT22;6801;53.018;11.560;2023-04-01T13:28:24;9.70;78.80
13458;DHT22;6801;53.018;11.560;2023-04-01T13:31:00;9.80;78.80
13458;DHT22;6801;53.018;11.560;2023-04-01T13:33:36;9.70;78.80
13458;DHT22;6801;53.018;11.560;2023-04-01T13:36:14;9.70;78.60
13458;DHT22;6801;53.018;11.560;2023-04-01T13:39:04;9.70;79.10
13458;DHT22;6801;53.018;11.560;2023-04-01T13:41:55;9.60;79.10
13458;DHT22;6801;53.018;11.560;2023-04-01T13:44:31;9.60;79.00
13458;DHT22;6801;53.018;11.560;2023-04-01T13:47:19;9.60;79.10
13458;DHT22;6801;53.018;11.560;2023-04-01T13:50:23;9.60;79.40
13458;DHT22;6801;53.018;11.560;2023-04-01T13:53:29;9.50;80.00
13458;DHT22;6801;53.018;11.560;2023-04-01T13:56:14;9.40;80.10
13458;DHT22;6801;53.018;11.560;2023-04-01T13:59:07;9.50;79.90
13458;DHT22;6801;53.018;11.560;2023-04-01T14:01:41;9.60;79.00
13458;DHT22;6801;53.018;11.560;2023-04-01T14:07:36;9.50;79.10
13458;DHT22;6801;53.018;11.560;2023-04-01T14:10:19;9.40;79.70
13458;DHT22;6801;53.018;11.560;2023-04-01T14:12:57;9.30;79.80
13458;DHT22;6801;53.018;11.560;2023-04-01T14:15:39;9.30;79.60
13458;DHT22;6801;53.018;11.560;2023-04-01T14:18:22;9.40;79.50
13458;DHT22;6801;53.018;11.560;2023-04-01T14:21:01;9.40;79.50
13458;DHT22;6801;53.018;11.560;2023-04-01T14:23:41;9.50;79.30
13458;DHT22;6801;53.018;11.560;2023-04-01T14:26:21;9.30;79.20
13458;DHT22;6801;53.018;11.560;2023-04-01T14:29:00;9.30;79.40
13458;DHT22;6801;53.018;11.560;2023-04-01T14:31:53;9.30;79.30
13458;DHT22;6801;53.018;11.560;2023-04-01T14:34:38;9.40;79.10
13458;DHT22;6801;53.018;11.560;2023-04-01T14:37:25;9.40;79.40
13458;DHT22;6801;53.018;11.560;2023-04-01T14:40:05;9.30;79.00
13458;DHT22;6801;53.018;11.560;2023-04-01T14:43:10;9.40;78.90
13458;DHT22;6801;53.018;11.560;2023-04-01T14:46:00;9.30;78.90
13458;DHT22;6801;53.018;11.560;2023-04-01T14:48:36;9.20;79.20
13458;DHT22;6801;53.018;11.560;2023-04-01T14:51:10;9.10;79.70
13458;DHT22;6801;53.018;11.560;2023-04-01T14:53:44;9.10;79.70
13458;DHT22;6801;53.018;11.560;2023-04-01T14:56:35;9.10;79.80
13458;DHT22;6801;53.018;11.560;2023-04-01T14:59:09;9.00;79.90
13458;DHT22;6801;53.018;11.560;2023-04-01T15:01:43;9.00;80.40
13458;DHT22;6801;53.018;11.560;2023-04-01T15:13:54;9.10;79.30
13458;DHT22;6801;53.018;11.560;2023-04-01T15:16:29;9.10;79.10
13458;DHT22;6801;53.018;11.560;2023-04-01T15:19:06;9.10;79.10
13458;DHT22;6801;53.018;11.560;2023-04-01T15:21:48;9.10;78.80
13458;DHT22;6801;53.018;11.560;2023-04-01T15:24:21;9.10;79.00
13458;DHT22;6801;53.018;11.560;2023-04-01T15:27:06;9.00;79.00
13458;DHT22;6801;53.018;11.560;2023-04-01T15:29:54;9.00;79.30
13458;DHT22;6801;53.018;11.560;2023-04-01T15:32:32;9.00;79.40
13458;DHT22;6801;53.018;11.560;2023-04-01T15:35:15;9.00;79.20
13458;DHT22;6801;53.018;11.560;2023-04-01T15:37:53;8.90;79.20
13458;DHT22;6801;53.018;11.560;2023-04-01T15:40:25;8.90;79.40
13458;DHT22;6801;53.018;11.560;2023-04-01T15:43:03;8.90;79.40
13458;DHT22;6801;53.018;11.560;2023-04-01T15:45:40;8.80;79.50
13458;DHT22;6801;53.018;11.560;2023-04-01T15:48:22;8.80;79.70
13458;DHT22;6801;53.018;11.560;2023-04-01T15:51:02;8.80;79.30
13458;DHT22;6801;53.018;11.560;2023-04-01T15:56:28;8.70;79.30
13458;DHT22;6801;53.018;11.560;2023-04-01T15:59:04;8.70;79.40
13458;DHT22;6801;53.018;11.560;2023-04-01T16:01:43;8.60;79.60
13458;DHT22;6801;53.018;11.560;2023-04-01T16:04:26;8.60;79.60
13458;DHT22;6801;53.018;11.560;2023-04-01T16:07:04;8.60;79.60
13458;DHT22;6801;53.018;11.560;2023-04-01T16:09:47;8.60;79.50
13458;DHT22;6801;53.018;11.560;2023-04-01T16:12:31;8.70;79.00
13458;DHT22;6801;53.018;11.560;2023-04-01T16:15:12;8.60;79.30
13458;DHT22;6801;53.018;11.560;2023-04-01T16:17:59;8.60;79.30
13458;DHT22;6801;53.018;11.560;2023-04-01T16:20:43;8.60;79.20
13458;DHT22;6801;53.018;11.560;2023-04-01T16:23:16;8.50;79.50
13458;DHT22;6801;53.018;11.560;2023-04-01T16:25:51;8.50;79.60
13458;DHT22;6801;53.018;11.560;2023-04-01T16:28:25;8.50;79.60
13458;DHT22;6801;53.018;11.560;2023-04-01T16:30:59;8.70;78.70
13458;DHT22;6801;53.018;11.560;2023-04-01T16:33:35;8.70;77.90
13458;DHT22;6801;53.018;11.560;2023-04-01T16:36:13;8.60;77.80
13458;DHT22;6801;53.018;11.560;2023-04-01T16:38:50;8.60;77.70
13458;DHT22;6801;53.018;11.560;2023-04-01T16:41:23;8.50;78.00
13458;DHT22;6801;53.018;11.560;2023-04-01T16:43:56;8.50;78.00
13458;DHT22;6801;53.018;11.560;2023-04-01T16:46:30;8.50;78.00
13458;DHT22;6801;53.018;11.560;2023-04-01T16:49:00;8.50;78.50
13458;DHT22;6801;53.018;11.560;2023-04-01T16:51:36;8.40;78.00
13458;DHT22;6801;53.018;11.560;2023-04-01T16:54:06;8.40;78.10
13458;DHT22;6801;53.018;11.560;2023-04-01T16:56:39;8.40;78.20
13458;DHT22;6801;53.018;11.560;2023-04-01T16:59:13;8.30;78.40
13458;DHT22;6801;53.018;11.560;2023-04-01T17:01:47;8.30;78.90
13458;DHT22;6801;53.018;11.560;2023-04-01T17:04:21;8.40;78.10
13458;DHT22;6801;53.018;11.560;2023-04-01T17:06:53;8.30;78.10
13458;DHT22;6801;53.018;11.560;2023-04-01T17:09:48;8.30;77.90
13458;DHT22;6801;53.018;11.560;2023-04-01T17:12:20;8.30;77.90
13458;DHT22;6801;53.018;11.560;2023-04-01T17:14:57;8.20;78.20
13458;DHT22;6801;53.018;11.560;2023-04-01T17:17:34;8.20;78.40
13458;DHT22;6801;53.018;11.560;2023-04-01T17:20:13;8.10;78.90
13458;DHT22;6801;53.018;11.560;2023-04-01T17:22:50;8.10;78.90
13458;DHT22;6801;53.018;11.560;2023-04-01T17:25:29;8.20;78.10
13458;DHT22;6801;53.018;11.560;2023-04-01T17:28:04;8.20;77.70
13458;DHT22;6801;53.018;11.560;2023-04-01T17:30:36;8.20;77.90
13458;DHT22;6801;53.018;11.560;2023-04-01T17:36:16;8.20;77.10
13458;DHT22;6801;53.018;11.560;2023-04-01T17:38:56;8.10;77.20
13458;DHT22;6801;53.018;11.560;2023-04-01T17:41:36;8.00;77.60
13458;DHT22;6801;53.018;11.560;2023-04-01T17:44:18;8.00;77.80
13458;DHT22;6801;53.018;11.560;2023-04-01T17:47:08;8.10;77.30
13458;DHT22;6801;53.018;11.560;2023-04-01T17:49:41;8.10;77.00
13458;DHT22;6801;53.018;11.560;2023-04-01T17:52:18;8.00;77.30
13458;DHT22;6801;53.018;11.560;2023-04-01T17:54:53;8.00;77.80
13458;DHT22;6801;53.018;11.560;2023-04-01T17:57:37;8.00;77.60
13458;DHT22;6801;53.018;11.560;2023-04-01T18:00:19;8.10;77.10
13458;DHT22;6801;53.018;11.560;2023-04-01T18:02:57;8.00;76.80
13458;DHT22;6801;53.018;11.560;2023-04-01T18:05:57;8.00;76.80
13458;DHT22;6801;53.018;11.560;2023-04-01T18:08:44;7.90;77.10